Ascutney, Vermont
Current Conditions -  °F | °C
As of 6:54 AM on Saturday 25 Oct 2014 (Local Time) from KVSF Reporting Station
Haze Haze  
Wind Chill: 33°   Ceiling: Unl
Heat Index: 33°   Visibility: 4mi
Dew Point: 32°   Wind: 0mph
Humidity: 96%   Direction: NA
Pressure: 29.78"   Gusts: NA
Location:  43.41°N, 72.41°W
Report Text: KVSF 251054Z AUTO 00000KT 4SM BR SCT002 01/00 A2978 RMK AO2 SLP090 T00060000
Loading
Personal Weather Stations






























Interactive Weather Map
Tropical Storm Tracking
New forecast layout! Learn more

10-Day Weather Forecast

Advertisements
Track Severe Weather on mobile